Narsis — 5IM513 — position and weather

sailwx.info

Track history (hours):
 
Tides and Currents Weather Stations Pressure Air Temp Water Temp Dewpoint Dewpoint Depression Visibility Wind Speed Wind Dir Waves Ship Positions

Narsis

Last reported at 2018-Apr-14 09:29 UTC. Time now 2018-May-22 08:08 UTC.
Position N 32°11' E 031°01'.
Warning: this ship's position is 37 days out of date.

Length 92 m; draft 4 m.

Type: Ship (hazmat cat B). MMSI: 677041300.

Date/timePositionNaut miles runAvg speedWind from/ knotsBaromVisibWave heightAir tempDewpointWater temp
2018-Apr-14 09:29N 32°11' E 031°01'61 9.0
2018-Apr-14 02:44N 32°43' E 032°02'25 9.5
2018-Apr-14 00:05N 32°59' E 032°26'2 9.9
2018-Apr-13 23:51N 33°01' E 032°27'5 9.9
2018-Apr-13 23:18N 33°05' E 032°32'3 9.8
2018-Apr-13 23:00N 33°07' E 032°34'811.0
2018-Apr-13 22:16N 33°10' E 032°43'3 7.7
2018-Apr-13 21:56N 33°12' E 032°45'4 9.8
2018-Apr-13 21:30N 33°15' E 032°49'5 9.9
2018-Apr-13 20:57N 33°17' E 032°55'7 9.8
2018-Apr-13 20:16N 33°21' E 033°01'4 9.8
2018-Apr-13 19:51N 33°23' E 033°05'4 9.7
2018-Apr-13 19:26N 33°26' E 033°09'8 9.7
2018-Apr-13 18:40N 33°31' E 033°16'1975.0
2018-Apr-13 18:24N 33°50' E 033°12'1842.7
2018-Apr-13 17:58N 33°34' E 033°23'4 9.6
2018-Apr-13 17:30N 33°36' E 033°27'5 9.2
2018-Apr-13 17:00N 33°39' E 033°32'5 9.0
2018-Apr-13 16:30N 33°42' E 033°36'67 9.0
2018-Apr-13 09:06N 34°21' E 034°41'  
Track history (hours):
 
Tides and Currents Weather Stations Pressure Air Temp Water Temp Dewpoint Dewpoint Depression Visibility Wind Speed Wind Dir Waves Ship Positions

Narsis

Last reported at 2018-Apr-14 09:29 UTC. Time now 2018-May-22 08:08 UTC.
Position N 32°11' E 031°01'.
Warning: this ship's position is 37 days out of date.

Length 92 m; draft 4 m.

Type: Ship (hazmat cat B). MMSI: 677041300.

Date/timePositionNaut miles runAvg speedWind from/ knotsBaromVisibWave heightAir tempDewpointWater temp
2018-Apr-14 09:29N 32°11' E 031°01'61 9.0
2018-Apr-14 02:44N 32°43' E 032°02'25 9.5
2018-Apr-14 00:05N 32°59' E 032°26'2 9.9
2018-Apr-13 23:51N 33°01' E 032°27'5 9.9
2018-Apr-13 23:18N 33°05' E 032°32'3 9.8
2018-Apr-13 23:00N 33°07' E 032°34'811.0
2018-Apr-13 22:16N 33°10' E 032°43'3 7.7
2018-Apr-13 21:56N 33°12' E 032°45'4 9.8
2018-Apr-13 21:30N 33°15' E 032°49'5 9.9
2018-Apr-13 20:57N 33°17' E 032°55'7 9.8
2018-Apr-13 20:16N 33°21' E 033°01'4 9.8
2018-Apr-13 19:51N 33°23' E 033°05'4 9.7
2018-Apr-13 19:26N 33°26' E 033°09'8 9.7
2018-Apr-13 18:40N 33°31' E 033°16'1975.0
2018-Apr-13 18:24N 33°50' E 033°12'1842.7
2018-Apr-13 17:58N 33°34' E 033°23'4 9.6
2018-Apr-13 17:30N 33°36' E 033°27'5 9.2
2018-Apr-13 17:00N 33°39' E 033°32'5 9.0
2018-Apr-13 16:30N 33°42' E 033°36'67 9.0
2018-Apr-13 09:06N 34°21' E 034°41'  

Dump ship's entire track history